Time;durP1;ratioP1;P1;durP2;ratioP2;P2;SDS_P1;SDS_P2;PMS_P1;PMS_P2;Temp;Humidity;BMP_temperature;BMP_pressure;BME280_temperature;BME280_humidity;BME280_pressure;Samples;Min_cycle;Max_cycle;Signal;HPM_P1;HPM_P2
2021/05/31 00:01:12;;;;;;;6.70;2.28;;;;;;;9.16;48.00;99961.13;5011979;28;20195;-68
2021/05/31 00:03:38;;;;;;;6.90;2.20;;;;;;;9.11;48.62;99956.19;5011793;28;20431;-72
2021/05/31 00:06:04;;;;;;;4.00;1.70;;;;;;;9.11;48.26;99964.09;5012324;28;20040;-69
2021/05/31 00:08:30;;;;;;;4.75;1.90;;;;;;;9.14;48.34;99958.59;5010900;28;20030;-70
2021/05/31 00:10:56;;;;;;;5.85;1.98;;;;;;;9.10;48.60;99956.25;4994477;28;20045;-70
2021/05/31 00:13:22;;;;;;;5.78;1.88;;;;;;;9.09;48.18;99955.41;5012289;28;20036;-70
2021/05/31 00:15:48;;;;;;;4.97;1.50;;;;;;;9.06;48.69;99961.75;5012181;28;20039;-71
2021/05/31 00:18:15;;;;;;;3.58;1.65;;;;;;;9.06;48.61;99966.19;5012542;28;20065;-72
2021/05/31 00:20:41;;;;;;;6.47;1.80;;;;;;;9.07;48.70;99962.59;5012308;28;20054;-72
2021/05/31 00:23:06;;;;;;;7.32;2.38;;;;;;;9.06;48.43;99960.91;5015592;28;20033;-70
2021/05/31 00:25:32;;;;;;;6.72;2.17;;;;;;;9.06;48.60;99955.63;5030810;28;20472;-71
2021/05/31 00:27:58;;;;;;;5.50;2.35;;;;;;;9.06;48.61;99963.56;5032467;28;20482;-69
2021/05/31 00:30:24;;;;;;;6.55;2.10;;;;;;;9.05;49.48;99954.78;5030218;28;20485;-68
2021/05/31 00:32:51;;;;;;;5.47;1.60;;;;;;;8.92;49.44;99963.59;5031583;28;20041;-68
2021/05/31 00:35:17;;;;;;;5.18;1.80;;;;;;;8.90;49.64;99956.63;5031551;28;20030;-70
2021/05/31 00:37:43;;;;;;;6.78;1.95;;;;;;;8.88;49.66;99952.41;5031513;28;20041;-71
2021/05/31 00:40:10;;;;;;;3.13;1.77;;;;;;;8.83;49.22;99952.69;5031636;28;20037;-71
2021/05/31 00:42:37;;;;;;;8.40;1.55;;;;;;;8.76;49.34;99951.44;5031364;28;20037;-70
2021/05/31 00:45:05;;;;;;;6.40;1.98;;;;;;;8.71;50.07;99950.84;5031559;28;20041;-70
2021/05/31 00:47:31;;;;;;;6.38;1.65;;;;;;;8.70;49.99;99941.28;5031297;28;20033;-70
2021/05/31 00:49:58;;;;;;;4.00;1.40;;;;;;;8.71;50.09;99946.44;5031984;28;20370;-70
2021/05/31 00:52:24;;;;;;;7.25;1.60;;;;;;;8.66;50.23;99945.03;5035142;28;20174;-71
2021/05/31 00:54:50;;;;;;;5.35;1.85;;;;;;;8.66;49.70;99952.97;5035451;28;20037;-71
2021/05/31 00:57:17;;;;;;;4.90;1.60;;;;;;;8.67;50.40;99946.75;5035499;28;20029;-70
2021/05/31 00:59:42;;;;;;;8.90;1.60;;;;;;;8.62;50.41;99946.19;5035210;28;20044;-69
2021/05/31 01:02:08;;;;;;;6.10;1.77;;;;;;;8.56;49.95;99948.28;5035136;28;20042;-69
2021/05/31 01:04:34;;;;;;;3.30;1.55;;;;;;;8.56;50.28;99953.56;5034890;28;20037;-70
2021/05/31 01:07:04;;;;;;;5.90;1.48;;;;;;;8.55;50.09;99951.03;5034940;28;20091;-72
2021/05/31 01:09:45;;;;;;;6.18;1.65;;;;;;;8.58;50.26;99945.53;5033878;28;20037;-71
2021/05/31 01:12:33;;;;;;;3.80;1.55;;;;;;;8.56;50.43;99953.56;5035044;28;20057;-69
2021/05/31 01:15:08;;;;;;;;;;;;;;;8.60;50.27;99958.63;5033943;28;20038;-70
2021/05/31 01:17:55;;;;;;;4.50;1.70;;;;;;;8.55;50.68;99961.56;5034479;28;19948;-69
2021/05/31 01:20:29;;;;;;;4.38;1.80;;;;;;;8.55;50.48;99962.41;5034466;28;20543;-70
2021/05/31 01:22:57;;;;;;;4.28;1.40;;;;;;;8.53;50.72;99959.00;5032891;28;20029;-71
2021/05/31 01:25:30;;;;;;;6.05;2.38;;;;;;;8.52;50.78;99961.75;5014669;28;20073;-69
2021/05/31 01:28:08;;;;;;;9.90;1.67;;;;;;;8.45;50.94;99963.91;5013467;28;20057;-68
2021/05/31 01:30:34;;;;;;;7.88;1.70;;;;;;;8.45;51.04;99970.97;5014418;28;20529;-69
2021/05/31 01:33:01;;;;;;;7.18;1.60;;;;;;;8.45;50.98;99966.56;5013105;28;20026;-69
2021/05/31 01:35:31;;;;;;;3.92;1.80;;;;;;;8.45;50.95;99979.72;5013003;28;20041;-72
2021/05/31 01:37:58;;;;;;;5.78;1.70;;;;;;;8.43;51.20;99966.63;5014125;28;20459;-70
2021/05/31 01:40:24;;;;;;;5.55;1.70;;;;;;;8.43;51.55;99974.53;5013161;28;20077;-70
2021/05/31 01:42:56;;;;;;;4.35;1.88;;;;;;;8.41;51.37;99980.84;5013994;28;20037;-72
2021/05/31 01:45:22;;;;;;;4.32;1.60;;;;;;;8.39;51.16;99980.13;5010800;28;20034;-68
2021/05/31 01:47:48;;;;;;;6.05;1.85;;;;;;;8.41;51.34;99981.72;5003061;28;20045;-70
2021/05/31 01:50:15;;;;;;;5.78;1.67;;;;;;;8.45;50.96;99971.81;5013144;28;20083;-70
2021/05/31 01:52:43;;;;;;;6.15;1.48;;;;;;;8.46;51.39;99978.81;5012908;28;20034;-72
2021/05/31 01:55:10;;;;;;;7.55;1.50;;;;;;;8.44;51.46;99980.66;5013836;28;20557;-68
2021/05/31 01:57:37;;;;;;;5.15;1.45;;;;;;;8.46;52.00;99981.47;5014059;28;20034;-69
2021/05/31 02:00:07;;;;;;;5.80;1.50;;;;;;;8.51;51.21;99989.91;5013809;28;20387;-70
2021/05/31 02:02:39;;;;;;;4.20;1.60;;;;;;;8.50;51.12;99987.34;4994041;28;20049;-68
2021/05/31 02:05:09;;;;;;;6.30;1.83;;;;;;;8.48;51.40;99987.47;4992466;28;20042;-68
2021/05/31 02:07:39;;;;;;;5.93;1.33;;;;;;;8.43;50.92;99985.06;4993278;28;20046;-69
2021/05/31 02:10:07;;;;;;;4.38;1.50;;;;;;;8.46;51.21;99989.38;4994639;28;20188;-69
2021/05/31 02:12:41;;;;;;;4.72;1.75;;;;;;;8.49;51.59;99993.59;4994006;28;20353;-70
2021/05/31 02:15:09;;;;;;;5.00;1.65;;;;;;;8.51;51.66;99984.66;4994259;28;20391;-68
2021/05/31 02:17:41;;;;;;;;;;;;;;;8.52;51.45;99994.25;4994602;28;20150;-69
2021/05/31 02:20:11;;;;;;;4.80;1.80;;;;;;;8.48;51.35;100002.44;4994583;28;20365;-70
2021/05/31 02:22:41;;;;;;;5.88;1.70;;;;;;;8.53;51.80;100003.81;4992919;28;20034;-67
2021/05/31 02:25:07;;;;;;;10.02;1.67;;;;;;;8.56;51.82;100002.78;4993157;28;20041;-68
2021/05/31 02:27:33;;;;;;;5.05;1.65;;;;;;;8.62;51.25;100004.19;4992819;28;20074;-68
2021/05/31 02:29:59;;;;;;;3.67;1.52;;;;;;;8.50;51.23;100003.16;4992757;28;20112;-68
2021/05/31 02:32:28;;;;;;;3.83;1.70;;;;;;;8.52;51.70;100009.22;4993929;28;20058;-71
2021/05/31 02:34:57;;;;;;;8.73;2.40;;;;;;;8.63;51.21;100011.16;4993816;28;20041;-68
2021/05/31 02:37:37;;;;;;;6.63;1.58;;;;;;;8.57;51.90;100002.72;4993317;28;20100;-69
2021/05/31 02:40:05;;;;;;;7.70;1.67;;;;;;;8.58;51.85;100004.41;4993803;28;20038;-71
2021/05/31 02:42:56;;;;;;;6.07;1.60;;;;;;;8.63;51.04;100011.16;4993506;28;20042;-70
2021/05/31 02:45:23;;;;;;;9.18;1.77;;;;;;;8.62;51.27;100006.84;4993682;28;20030;-72
2021/05/31 02:47:50;;;;;;;6.03;2.40;;;;;;;8.65;51.76;100009.25;4993718;28;20356;-69
2021/05/31 02:50:16;;;;;;;9.20;1.77;;;;;;;8.60;51.81;100014.00;4993578;28;20034;-70
2021/05/31 02:52:42;;;;;;;4.68;1.88;;;;;;;8.64;52.00;100003.16;4993393;28;20041;-69
2021/05/31 02:55:13;;;;;;;4.47;1.65;;;;;;;8.67;52.03;100007.38;4993720;28;20049;-70
2021/05/31 02:57:39;;;;;;;5.55;1.77;;;;;;;8.77;52.61;100011.13;4993302;28;20376;-70
2021/05/31 03:00:07;;;;;;;4.97;1.67;;;;;;;8.82;52.41;100014.34;4992191;28;20050;-69
2021/05/31 03:02:33;;;;;;;10.38;1.92;;;;;;;8.86;51.66;100007.91;4993257;28;20422;-70
2021/05/31 03:04:59;;;;;;;3.50;1.60;;;;;;;8.83;51.97;100010.72;4993689;28;20039;-72
2021/05/31 03:07:26;;;;;;;4.80;1.70;;;;;;;8.82;51.65;100014.34;4993059;28;20479;-71
2021/05/31 03:09:51;;;;;;;5.85;3.00;;;;;;;8.72;52.12;100005.28;4993064;28;20088;-71
2021/05/31 03:12:18;;;;;;;3.45;1.52;;;;;;;8.71;51.97;100015.00;4992035;28;20030;-71
2021/05/31 03:14:44;;;;;;;7.00;1.63;;;;;;;8.71;52.15;100009.75;4992528;28;20425;-70
2021/05/31 03:17:09;;;;;;;4.15;1.50;;;;;;;8.78;52.14;100015.44;4993248;28;20068;-71
2021/05/31 03:19:35;;;;;;;8.98;1.90;;;;;;;8.88;51.72;100010.44;4992682;28;20034;-73
2021/05/31 03:22:01;;;;;;;4.38;2.00;;;;;;;8.96;51.40;100024.00;4992868;28;20491;-72
2021/05/31 03:24:27;;;;;;;5.28;1.48;;;;;;;9.05;51.47;100022.53;5021516;28;20033;-70
2021/05/31 03:26:53;;;;;;;9.35;2.08;;;;;;;8.96;51.55;100031.91;5032192;28;20080;-71
2021/05/31 03:29:19;;;;;;;8.25;2.15;;;;;;;9.00;51.91;100024.63;5030491;28;20029;-71
2021/05/31 03:31:45;;;;;;;5.85;1.63;;;;;;;9.02;51.37;100033.28;5021588;28;20060;-73
2021/05/31 03:34:10;;;;;;;8.23;2.17;;;;;;;8.87;51.64;100025.44;5000866;28;20030;-69
2021/05/31 03:36:37;;;;;;;7.97;2.08;;;;;;;8.91;51.47;100026.09;4997435;28;20051;-71
2021/05/31 03:39:06;;;;;;;7.32;1.80;;;;;;;8.83;51.72;100029.19;4992943;28;20113;-71
2021/05/31 03:41:33;;;;;;;5.03;1.85;;;;;;;8.92;51.71;100021.63;4992755;28;20443;-70
2021/05/31 03:43:58;;;;;;;5.85;1.70;;;;;;;8.92;51.78;100022.47;5007836;28;20091;-73
2021/05/31 03:46:26;;;;;;;4.65;1.67;;;;;;;8.99;51.38;100017.66;5002534;28;20498;-71
2021/05/31 03:48:52;;;;;;;7.43;1.70;;;;;;;9.00;51.60;100019.38;5006778;28;20041;-70
2021/05/31 03:51:19;;;;;;;6.22;1.70;;;;;;;9.04;51.55;100010.28;5010389;28;20042;-71
2021/05/31 03:53:45;;;;;;;9.50;2.45;;;;;;;9.13;51.04;100009.69;4994501;28;20034;-71
2021/05/31 03:56:12;;;;;;;8.10;2.30;;;;;;;9.16;51.27;100014.75;5003637;28;20044;-72
2021/05/31 03:58:40;;;;;;;6.65;1.95;;;;;;;9.22;51.10;100019.63;4993158;28;20030;-72
2021/05/31 04:01:06;;;;;;;;;;;;;;;9.25;51.23;100021.22;5012332;28;20438;-72
2021/05/31 04:03:32;;;;;;;8.23;1.90;;;;;;;9.40;50.75;100024.66;5010694;28;19964;-71
2021/05/31 04:06:15;;;;;;;6.70;2.13;;;;;;;9.36;50.66;100015.25;5009071;28;20133;-69
2021/05/31 04:11:37;;;;;;;8.35;2.30;;;;;;;9.60;50.24;100025.13;4993588;28;20461;-72
2021/05/31 04:14:11;;;;;;;7.03;2.20;;;;;;;10.02;49.65;100012.56;5002460;28;20042;-70
2021/05/31 04:16:39;;;;;;;6.95;2.15;;;;;;;11.84;45.74;100014.38;5003916;28;20041;-69
2021/05/31 04:19:06;;;;;;;7.50;1.90;;;;;;;12.01;45.00;100014.91;5001098;28;20060;-73
2021/05/31 04:21:34;;;;;;;5.27;1.97;;;;;;;12.92;43.64;100018.31;5003890;28;20034;-69
2021/05/31 04:24:00;;;;;;;8.23;2.30;;;;;;;13.73;41.99;100012.53;5008457;28;20074;-70
2021/05/31 04:26:26;;;;;;;12.02;2.20;;;;;;;13.58;41.34;100015.53;5009499;28;20050;-70
2021/05/31 04:28:52;;;;;;;4.50;1.50;;;;;;;13.47;41.23;100009.44;4999492;28;20137;-71
2021/05/31 04:31:18;;;;;;;15.57;2.83;;;;;;;13.69;40.88;100016.44;4996938;28;20472;-70
2021/05/31 04:33:44;;;;;;;11.25;2.35;;;;;;;14.90;39.67;100008.69;5000130;28;20034;-70
2021/05/31 04:36:11;;;;;;;6.78;2.25;;;;;;;15.38;38.20;100015.84;4997387;28;20034;-71
2021/05/31 04:38:38;;;;;;;8.00;1.88;;;;;;;14.76;38.69;100018.75;5000844;28;20117;-71
2021/05/31 04:41:04;;;;;;;;;;;;;;;14.40;39.17;100024.50;5010176;28;20104;-71
2021/05/31 04:43:30;;;;;;;7.00;1.80;;;;;;;14.64;38.61;100015.34;5015253;28;19909;-72
2021/05/31 04:45:56;;;;;;;6.22;2.03;;;;;;;14.34;39.27;100014.41;5012683;28;20110;-73
2021/05/31 04:48:22;;;;;;;7.35;2.28;;;;;;;13.90;40.00;100011.94;5003629;28;20065;-73
2021/05/31 04:50:55;;;;;;;5.93;2.05;;;;;;;13.82;40.46;100008.25;5009597;28;20033;-70
2021/05/31 04:53:26;;;;;;;6.93;1.85;;;;;;;13.57;40.76;100020.97;4996669;28;20153;-73
2021/05/31 04:55:56;;;;;;;10.65;2.60;;;;;;;13.58;40.66;100017.34;5010228;28;20045;-73
2021/05/31 04:58:23;;;;;;;7.03;2.63;;;;;;;13.58;40.56;100017.34;5011318;28;20029;-71
2021/05/31 05:00:50;;;;;;;7.43;2.70;;;;;;;13.55;41.42;100014.97;4998240;28;20062;-73
2021/05/31 05:03:17;;;;;;;6.20;2.08;;;;;;;13.90;40.27;100017.25;5002619;28;20061;-71
2021/05/31 05:05:44;;;;;;;7.03;1.83;;;;;;;13.70;40.43;100020.78;5001329;28;20044;-71
2021/05/31 05:08:10;;;;;;;4.35;1.50;;;;;;;13.52;40.49;100031.16;5007844;28;20061;-71
2021/05/31 05:10:36;;;;;;;7.88;2.00;;;;;;;13.25;41.38;100027.16;5004659;28;20514;-72
2021/05/31 05:13:02;;;;;;;4.53;1.52;;;;;;;13.07;41.39;100025.03;5006086;28;20133;-73
2021/05/31 05:15:28;;;;;;;7.85;1.98;;;;;;;12.84;42.32;100021.59;4998599;28;20165;-74
2021/05/31 05:17:55;;;;;;;6.57;1.95;;;;;;;12.99;42.05;100016.84;4998876;28;20026;-73
2021/05/31 05:20:24;;;;;;;6.10;2.78;;;;;;;13.16;42.06;100020.78;5001429;28;20160;-70
2021/05/31 05:22:51;;;;;;;10.27;2.33;;;;;;;13.51;41.26;100021.50;4998664;28;20061;-72
2021/05/31 05:25:17;;;;;;;7.00;2.13;;;;;;;14.10;40.14;100022.69;4999441;28;20034;-71
2021/05/31 05:27:45;;;;;;;7.75;2.80;;;;;;;14.15;40.18;100019.63;5000961;28;20057;-71
2021/05/31 05:30:14;;;;;;;4.97;2.33;;;;;;;15.14;39.40;100026.91;4998511;28;20444;-72
2021/05/31 05:32:53;;;;;;;5.53;1.88;;;;;;;16.39;36.55;100018.00;5001453;28;20069;-70
2021/05/31 05:35:25;;;;;;;4.68;2.17;;;;;;;15.80;36.90;100014.66;5004604;28;20034;-72
2021/05/31 05:48:38;;;;;;;8.27;2.70;;;;;;;14.76;38.65;100033.91;5003943;28;20042;-73
2021/05/31 05:51:05;;;;;;;5.28;2.70;;;;;;;14.47;38.75;100035.44;5005304;28;20056;-71
2021/05/31 05:53:33;;;;;;;6.70;2.17;;;;;;;14.77;39.14;100035.59;5001714;28;20070;-71
2021/05/31 05:55:58;;;;;;;;;;;;;;;14.26;39.23;100043.50;5002864;28;20029;-71
2021/05/31 05:58:28;;;;;;;6.40;2.10;;;;;;;14.52;39.93;100041.22;5001994;28;19909;-74
2021/05/31 06:00:54;;;;;;;5.43;2.08;;;;;;;14.69;39.18;100034.44;5001769;28;20506;-72
2021/05/31 06:03:20;;;;;;;5.18;2.17;;;;;;;14.78;38.85;100037.25;5011615;28;20036;-74
2021/05/31 06:05:45;;;;;;;6.35;2.03;;;;;;;14.59;39.43;100038.84;5003333;28;20117;-74
2021/05/31 06:08:11;;;;;;;3.13;1.80;;;;;;;14.96;39.20;100034.78;5003130;28;20121;-72
2021/05/31 06:10:45;;;;;;;9.63;2.38;;;;;;;15.24;38.47;100042.91;5005600;28;20140;-73
2021/05/31 06:13:19;;;;;;;16.50;8.30;;;;;;;15.33;38.10;100036.75;4999654;28;20036;-72
2021/05/31 06:15:45;;;;;;;7.03;2.33;;;;;;;15.40;38.39;100031.69;5003889;28;20969;-69
2021/05/31 06:18:10;;;;;;;9.35;2.33;;;;;;;15.22;38.78;100037.72;5004327;28;20118;-72
2021/05/31 06:20:37;;;;;;;9.05;2.90;;;;;;;15.03;38.61;100039.41;5002085;28;20041;-74
2021/05/31 06:23:04;;;;;;;10.80;2.90;;;;;;;14.35;39.74;100041.84;5004465;28;20042;-74
2021/05/31 06:25:30;;;;;;;6.97;3.08;;;;;;;14.55;39.84;100040.09;5003694;28;20038;-73
2021/05/31 06:27:56;;;;;;;13.88;2.90;;;;;;;14.50;39.32;100039.66;5002312;28;20053;-72
2021/05/31 06:30:22;;;;;;;11.82;5.75;;;;;;;14.18;40.14;100030.84;5002983;28;20033;-74
2021/05/31 06:32:49;;;;;;;9.63;2.67;;;;;;;13.92;40.39;100033.09;5006191;28;20034;-73
2021/05/31 06:35:16;;;;;;;4.60;2.00;;;;;;;13.73;40.78;100034.66;5001385;28;20040;-74
2021/05/31 06:37:42;;;;;;;8.75;2.60;;;;;;;13.62;40.91;100040.06;5000964;28;20129;-74
2021/05/31 06:40:12;;;;;;;7.72;2.10;;;;;;;13.61;41.35;100037.50;5002175;28;20045;-76
2021/05/31 06:42:46;;;;;;;9.10;2.55;;;;;;;13.78;41.67;100042.22;5000922;28;20030;-73
2021/05/31 06:45:23;;;;;;;10.02;2.90;;;;;;;13.95;41.38;100035.50;5002277;28;20040;-76
2021/05/31 06:47:54;;;;;;;;;;;;;;;13.65;41.40;100044.25;4998198;28;20041;-75
2021/05/31 06:50:21;;;;;;;5.60;2.45;;;;;;;13.78;41.78;100044.06;5002582;28;19940;-74
2021/05/31 06:52:47;;;;;;;6.95;2.45;;;;;;;13.78;41.57;100033.44;5011904;28;20030;-79
2021/05/31 06:55:14;;;;;;;11.93;3.92;;;;;;;13.69;41.65;100046.50;5001160;28;20038;-76
2021/05/31 06:57:40;;;;;;;9.15;2.53;;;;;;;13.64;41.96;100043.41;5002214;28;20039;-74
2021/05/31 07:00:10;;;;;;;8.50;2.78;;;;;;;13.83;42.10;100041.84;4990579;28;20079;-74
2021/05/31 07:02:38;;;;;;;10.93;2.97;;;;;;;14.11;41.89;100036.84;4997571;28;20038;-75
2021/05/31 07:05:06;;;;;;;10.30;2.63;;;;;;;14.03;41.47;100042.81;5003972;28;20042;-75
2021/05/31 07:07:32;;;;;;;14.55;5.00;;;;;;;14.51;41.16;100039.53;5000451;28;20097;-75
2021/05/31 07:09:58;;;;;;;8.75;3.33;;;;;;;14.79;40.11;100033.59;4995065;28;20046;-76
2021/05/31 07:12:25;;;;;;;13.68;4.68;;;;;;;15.80;39.21;100028.84;4999922;28;20029;-72
2021/05/31 07:14:52;;;;;;;8.40;2.65;;;;;;;16.38;37.71;100029.69;4999326;28;20091;-73
2021/05/31 07:17:19;;;;;;;56.35;25.92;;;;;;;16.42;36.82;100022.22;4995897;28;20117;-74
2021/05/31 07:19:46;;;;;;;9.48;3.35;;;;;;;16.55;37.01;100014.72;5006521;28;20041;-73
2021/05/31 07:22:26;;;;;;;8.32;3.05;;;;;;;15.70;37.79;100022.69;5006402;28;20037;-75
2021/05/31 07:24:52;;;;;;;12.98;4.25;;;;;;;15.48;38.16;100023.84;5004409;28;20030;-73
2021/05/31 07:27:18;;;;;;;11.68;3.30;;;;;;;15.84;38.33;100027.59;5004981;28;20041;-76
2021/05/31 07:29:44;;;;;;;10.00;3.05;;;;;;;16.37;36.98;100025.31;5010806;28;20482;-74
2021/05/31 07:32:11;;;;;;;14.15;3.42;;;;;;;16.81;36.39;100028.19;5012380;28;20037;-75
2021/05/31 07:34:56;;;;;;;8.80;3.25;;;;;;;16.98;35.49;100031.91;4998662;28;20037;-75
2021/05/31 07:37:22;;;;;;;9.20;3.17;;;;;;;18.46;33.38;100027.81;5014834;28;20033;-74
2021/05/31 07:39:49;;;;;;;8.65;3.78;;;;;;;18.59;32.63;100034.41;5012131;28;20033;-78
2021/05/31 07:42:15;;;;;;;8.30;3.28;;;;;;;17.85;33.20;100030.47;5011237;28;20533;-73
2021/05/31 07:44:41;;;;;;;10.52;4.00;;;;;;;17.66;34.25;100036.84;4999528;28;20497;-76
2021/05/31 07:47:07;;;;;;;12.32;4.05;;;;;;;19.33;32.67;100032.94;4999901;28;20030;-75
2021/05/31 07:49:33;;;;;;;9.07;3.60;;;;;;;20.54;30.23;100023.16;5005045;28;20042;-75
2021/05/31 07:52:08;;;;;;;6.38;3.70;;;;;;;21.20;27.91;100027.31;4992255;28;20073;-74
2021/05/31 07:54:35;;;;;;;10.23;3.72;;;;;;;22.57;27.31;100016.44;4992481;28;20369;-75
2021/05/31 07:57:02;;;;;;;12.40;3.22;;;;;;;22.51;26.93;100027.13;4993082;28;20440;-75
2021/05/31 07:59:28;;;;;;;59.43;35.93;;;;;;;20.77;28.08;100023.25;4999507;28;20336;-75
2021/05/31 08:01:54;;;;;;;9.50;3.40;;;;;;;19.77;29.32;100037.94;5002128;28;20045;-76
2021/05/31 08:04:20;;;;;;;14.00;3.15;;;;;;;21.55;28.36;100020.50;4992712;28;20030;-74
2021/05/31 08:06:45;;;;;;;6.50;2.78;;;;;;;20.70;27.91;100027.63;4992174;28;20436;-75
2021/05/31 08:09:11;;;;;;;9.35;2.55;;;;;;;20.35;28.46;100029.78;4999313;28;20084;-74
2021/05/31 08:11:37;;;;;;;8.73;3.17;;;;;;;19.68;29.83;100028.22;5011691;28;20463;-76
2021/05/31 08:14:03;;;;;;;7.63;3.08;;;;;;;19.21;30.03;100027.03;5007088;28;20419;-74
2021/05/31 08:16:29;;;;;;;10.63;3.22;;;;;;;18.48;31.21;100025.81;5000951;28;20125;-76
2021/05/31 08:18:56;;;;;;;11.80;3.30;;;;;;;17.57;32.04;100033.25;5004253;28;20495;-76
2021/05/31 08:21:22;;;;;;;8.52;4.07;;;;;;;16.76;33.65;100035.81;5001351;28;20038;-74
2021/05/31 08:24:10;;;;;;;8.07;2.75;;;;;;;16.14;33.79;100036.38;5008785;28;20407;-76
2021/05/31 08:26:40;;;;;;;8.48;3.00;;;;;;;15.98;34.03;100028.97;4991761;28;20038;-75
2021/05/31 08:29:06;;;;;;;7.05;2.42;;;;;;;15.98;34.82;100026.31;4999453;28;20054;-74
2021/05/31 08:31:32;;;;;;;9.02;2.75;;;;;;;15.90;34.65;100030.69;4995251;28;20353;-75
2021/05/31 08:33:58;;;;;;;8.85;2.78;;;;;;;15.97;34.91;100029.94;4997576;28;20040;-75
2021/05/31 08:36:25;;;;;;;7.18;2.40;;;;;;;15.80;34.91;100030.66;4999375;28;20037;-75
2021/05/31 08:38:58;;;;;;;8.63;3.58;;;;;;;15.74;35.00;100033.91;5002894;28;20042;-74
2021/05/31 08:41:27;;;;;;;12.48;4.80;;;;;;;15.52;35.06;100035.91;4998074;28;20123;-76
2021/05/31 08:43:56;;;;;;;12.75;4.30;;;;;;;15.65;35.35;100025.78;5010189;28;20441;-75
2021/05/31 08:46:22;;;;;;;9.15;4.07;;;;;;;15.48;35.16;100029.19;4994097;28;20506;-77
2021/05/31 08:48:47;;;;;;;8.23;3.20;;;;;;;15.28;35.19;100021.19;4991706;28;20503;-73
2021/05/31 08:51:14;;;;;;;65.00;25.65;;;;;;;14.98;34.83;100024.81;4991479;28;20042;-75
2021/05/31 08:53:43;;;;;;;9.18;2.50;;;;;;;14.66;35.43;100029.38;4997649;28;20475;-74
2021/05/31 08:56:10;;;;;;;7.55;2.58;;;;;;;14.59;36.09;100016.72;5000300;28;20041;-76
2021/05/31 08:58:36;;;;;;;6.53;2.22;;;;;;;14.33;36.10;100023.38;4993384;28;20045;-78
2021/05/31 09:01:02;;;;;;;10.63;2.22;;;;;;;14.35;35.92;100024.03;4995507;28;20077;-75
2021/05/31 09:03:28;;;;;;;7.03;2.40;;;;;;;14.23;36.97;100017.13;4995148;28;20480;-75
2021/05/31 09:05:59;;;;;;;6.07;2.00;;;;;;;14.48;37.02;100010.53;4996448;28;20083;-73
2021/05/31 09:08:28;;;;;;;8.90;2.30;;;;;;;14.28;37.17;100019.41;5001403;28;20052;-76
2021/05/31 09:10:59;;;;;;;12.25;1.98;;;;;;;14.37;37.11;100021.28;4997426;28;20168;-77
2021/05/31 09:13:36;;;;;;;7.80;2.70;;;;;;;14.50;37.38;100021.84;5013837;28;20360;-73
2021/05/31 09:16:17;;;;;;;5.85;2.03;;;;;;;14.79;36.73;100017.63;4995528;28;20041;-74
2021/05/31 09:18:53;;;;;;;6.32;2.40;;;;;;;15.28;37.21;100013.19;4995214;28;20038;-74
2021/05/31 09:21:21;;;;;;;7.15;2.30;;;;;;;15.14;36.06;100008.28;4995733;28;20042;-73
2021/05/31 09:23:55;;;;;;;8.90;2.53;;;;;;;15.00;36.21;100010.38;5014759;28;20458;-73
2021/05/31 09:26:21;;;;;;;9.93;2.33;;;;;;;15.16;36.22;100012.47;5014555;28;20045;-74
2021/05/31 09:29:04;;;;;;;8.10;1.80;;;;;;;15.42;36.09;100009.25;5015648;28;20044;-75
2021/05/31 09:31:31;;;;;;;5.28;2.30;;;;;;;15.32;35.61;100014.59;5015132;28;20048;-74
2021/05/31 09:33:57;;;;;;;4.63;2.00;;;;;;;14.54;36.46;100009.97;5032014;28;20490;-77
2021/05/31 09:36:24;;;;;;;10.13;3.50;;;;;;;14.44;36.93;100002.94;4997479;28;20041;-74
2021/05/31 09:38:50;;;;;;;5.95;2.78;;;;;;;14.58;36.91;100005.25;4995665;28;20472;-75
2021/05/31 09:41:26;;;;;;;4.55;2.33;;;;;;;14.38;37.09;100015.81;4994626;28;20038;-76
2021/05/31 09:44:11;;;;;;;5.47;2.28;;;;;;;14.44;37.33;100009.09;4993088;28;20066;-74
2021/05/31 09:46:41;;;;;;;5.22;2.45;;;;;;;14.24;37.84;100013.50;4994173;28;20065;-75
2021/05/31 09:49:15;;;;;;;6.45;3.00;;;;;;;14.32;38.55;100012.84;4994078;28;20043;-75
2021/05/31 09:52:19;;;;;;;5.88;2.30;;;;;;;14.45;38.27;100015.28;4994020;28;20376;-79
2021/05/31 09:54:48;;;;;;;7.85;2.83;;;;;;;14.60;38.42;100008.59;4992936;28;20086;-74
2021/05/31 09:57:14;;;;;;;8.70;2.70;;;;;;;14.52;39.00;100011.09;4993880;28;20042;-75
2021/05/31 09:59:41;;;;;;;6.88;2.35;;;;;;;14.69;37.96;100017.59;4992256;28;20479;-76
2021/05/31 10:02:09;;;;;;;7.05;2.30;;;;;;;14.59;37.95;100014.88;4993640;28;20503;-79
2021/05/31 10:04:47;;;;;;;7.70;2.45;;;;;;;14.75;37.71;100006.41;4993646;28;20058;-77
2021/05/31 10:07:25;;;;;;;7.38;2.33;;;;;;;15.32;36.90;100011.91;4992334;28;20042;-76
2021/05/31 10:09:51;;;;;;;5.72;2.47;;;;;;;15.67;36.25;100004.31;4993555;28;20045;-76
2021/05/31 10:12:17;;;;;;;9.13;3.60;;;;;;;16.59;35.02;99997.38;4993875;28;20376;-76
2021/05/31 10:14:45;;;;;;;7.13;2.60;;;;;;;17.00;34.51;99996.16;4992498;28;20047;-74
2021/05/31 10:17:12;;;;;;;4.85;2.90;;;;;;;17.17;33.37;99998.03;4993602;28;20034;-75
2021/05/31 10:19:39;;;;;;;5.70;2.50;;;;;;;17.34;33.20;99995.47;4993088;28;20060;-74
2021/05/31 10:22:05;;;;;;;5.95;2.30;;;;;;;17.76;33.03;99995.63;4995970;28;20050;-73
2021/05/31 10:24:33;;;;;;;6.18;2.88;;;;;;;17.46;32.67;99994.25;5021287;28;20033;-75
2021/05/31 10:27:00;;;;;;;10.85;3.45;;;;;;;17.97;32.66;99997.13;5031356;28;20135;-77
2021/05/31 10:29:25;;;;;;;6.40;2.75;;;;;;;18.62;32.05;99995.72;5028258;28;20407;-75
2021/05/31 10:31:51;;;;;;;5.93;2.97;;;;;;;18.96;31.39;99994.00;4999494;28;20101;-76
2021/05/31 10:34:22;;;;;;;5.75;2.47;;;;;;;18.79;30.83;99993.94;5012349;28;20034;-74
2021/05/31 10:36:52;;;;;;;9.43;2.67;;;;;;;18.74;30.30;99983.72;5011700;28;20030;-75
2021/05/31 10:39:24;;;;;;;5.55;2.70;;;;;;;18.25;30.65;99989.72;5002050;28;20044;-75
2021/05/31 10:41:50;;;;;;;6.13;2.17;;;;;;;17.71;31.44;99997.09;5011414;28;20072;-74
2021/05/31 10:44:20;;;;;;;5.88;2.50;;;;;;;17.86;30.37;99978.63;4997748;28;20053;-72
2021/05/31 10:46:47;;;;;;;5.53;2.63;;;;;;;17.89;30.19;99976.47;4993441;28;20411;-75
2021/05/31 10:49:17;;;;;;;9.50;3.00;;;;;;;18.10;30.26;99980.63;4993715;28;20038;-76
2021/05/31 10:51:43;;;;;;;12.70;6.15;;;;;;;18.45;30.57;99978.75;4991600;28;20042;-75
2021/05/31 10:54:15;;;;;;;6.28;2.80;;;;;;;18.27;29.67;99984.22;4993408;28;20053;-71
2021/05/31 10:56:42;;;;;;;10.32;2.13;;;;;;;17.20;29.14;100000.38;5023447;28;20034;-75
2021/05/31 10:59:09;;;;;;;6.70;2.00;;;;;;;16.28;29.37;100005.69;5048066;28;20029;-75
2021/05/31 11:01:39;;;;;;;5.72;2.00;;;;;;;16.05;29.97;99994.56;5031845;28;20553;-75
2021/05/31 11:04:18;;;;;;;4.95;1.90;;;;;;;15.84;30.88;100008.09;5031906;28;20095;-73
2021/05/31 11:06:46;;;;;;;4.25;2.10;;;;;;;15.81;30.27;99998.53;5031978;28;20044;-73
2021/05/31 11:09:16;;;;;;;4.30;1.92;;;;;;;16.24;30.53;99998.97;5031919;28;20363;-72
2021/05/31 11:11:43;;;;;;;5.13;2.20;;;;;;;16.34;31.00;100004.28;5031968;28;20071;-74
2021/05/31 11:14:10;;;;;;;3.33;1.55;;;;;;;16.15;30.56;100000.69;5030873;28;20124;-75
2021/05/31 11:16:53;;;;;;;12.23;2.05;;;;;;;16.11;31.22;99995.78;5032387;28;20037;-75
2021/05/31 11:19:39;;;;;;;5.82;1.83;;;;;;;16.33;31.68;100010.59;5032351;28;20556;-77
2021/05/31 11:22:26;;;;;;;7.68;2.15;;;;;;;15.63;33.54;100005.59;5031081;28;20072;-75
2021/05/31 11:24:58;;;;;;;4.90;2.00;;;;;;;15.71;33.47;100013.69;5032168;28;20362;-77
2021/05/31 11:27:27;;;;;;;7.85;2.13;;;;;;;15.44;34.30;100014.44;5025537;28;20149;-76
2021/05/31 11:29:52;;;;;;;10.48;1.70;;;;;;;15.37;33.66;100023.00;4999438;28;20042;-72
2021/05/31 11:32:19;;;;;;;5.10;2.45;;;;;;;15.39;33.83;100011.34;5002373;28;20046;-74
2021/05/31 11:35:13;;;;;;;3.38;2.00;;;;;;;15.58;33.23;100006.00;4991224;28;20034;-76
2021/05/31 11:37:41;;;;;;;15.68;7.38;;;;;;;15.64;33.45;100000.13;4994544;28;20080;-75
2021/05/31 11:40:22;;;;;;;7.88;2.03;;;;;;;15.88;33.76;99990.81;4995859;28;20046;-72
2021/05/31 11:42:50;;;;;;;11.63;2.50;;;;;;;16.10;33.49;99986.97;4992212;28;20125;-73
2021/05/31 11:45:19;;;;;;;5.93;2.58;;;;;;;16.18;33.70;99991.56;4995996;28;20034;-73
2021/05/31 11:47:45;;;;;;;6.82;2.30;;;;;;;15.91;33.53;100001.19;5003921;28;20083;-72
2021/05/31 11:50:19;;;;;;;7.47;1.83;;;;;;;15.66;33.72;99990.16;4998583;28;20042;-73
2021/05/31 11:52:45;;;;;;;3.28;1.85;;;;;;;15.61;33.82;99989.72;4998447;28;20069;-72